sensor_id;sensor_type;location;lat;lon;timestamp;temperature;humidity
72604;DHT22;60645;56.968;24.196;2022-09-20T00:00:46;18.10;72.60
72604;DHT22;60645;56.968;24.196;2022-09-20T00:03:15;18.20;72.20
72604;DHT22;60645;56.968;24.196;2022-09-20T00:05:44;18.00;72.60
72604;DHT22;60645;56.968;24.196;2022-09-20T00:08:13;18.20;72.10
72604;DHT22;60645;56.968;24.196;2022-09-20T00:10:41;18.10;72.60
72604;DHT22;60645;56.968;24.196;2022-09-20T00:13:10;18.10;72.40
72604;DHT22;60645;56.968;24.196;2022-09-20T00:15:44;18.10;72.70
72604;DHT22;60645;56.968;24.196;2022-09-20T00:18:12;18.10;72.80
72604;DHT22;60645;56.968;24.196;2022-09-20T00:20:46;18.10;72.80
72604;DHT22;60645;56.968;24.196;2022-09-20T00:23:13;18.20;72.30
72604;DHT22;60645;56.968;24.196;2022-09-20T00:25:41;18.20;72.30
72604;DHT22;60645;56.968;24.196;2022-09-20T00:28:09;18.10;72.70
72604;DHT22;60645;56.968;24.196;2022-09-20T00:30:37;18.10;72.90
72604;DHT22;60645;56.968;24.196;2022-09-20T00:33:04;18.10;72.80
72604;DHT22;60645;56.968;24.196;2022-09-20T00:35:30;18.20;72.40
72604;DHT22;60645;56.968;24.196;2022-09-20T00:37:57;18.10;72.80
72604;DHT22;60645;56.968;24.196;2022-09-20T00:40:24;18.10;72.90
72604;DHT22;60645;56.968;24.196;2022-09-20T00:42:52;18.00;72.90
72604;DHT22;60645;56.968;24.196;2022-09-20T00:45:26;18.20;72.40
72604;DHT22;60645;56.968;24.196;2022-09-20T00:50:32;18.10;72.80
72604;DHT22;60645;56.968;24.196;2022-09-20T00:53:12;18.00;72.80
72604;DHT22;60645;56.968;24.196;2022-09-20T00:55:42;18.10;72.80
72604;DHT22;60645;56.968;24.196;2022-09-20T00:58:12;18.10;72.90
72604;DHT22;60645;56.968;24.196;2022-09-20T01:00:42;18.00;72.80
72604;DHT22;60645;56.968;24.196;2022-09-20T01:03:09;18.00;72.90
72604;DHT22;60645;56.968;24.196;2022-09-20T01:05:38;17.90;72.80
72604;DHT22;60645;56.968;24.196;2022-09-20T01:08:07;18.00;72.90
72604;DHT22;60645;56.968;24.196;2022-09-20T01:10:35;18.00;72.90
72604;DHT22;60645;56.968;24.196;2022-09-20T01:13:02;18.00;72.90
72604;DHT22;60645;56.968;24.196;2022-09-20T01:15:32;18.00;72.80
72604;DHT22;60645;56.968;24.196;2022-09-20T01:18:00;18.00;73.00
72604;DHT22;60645;56.968;24.196;2022-09-20T01:20:33;17.90;73.10
72604;DHT22;60645;56.968;24.196;2022-09-20T01:23:28;18.00;73.00
72604;DHT22;60645;56.968;24.196;2022-09-20T01:26:31;17.90;73.00
72604;DHT22;60645;56.968;24.196;2022-09-20T01:29:12;17.90;73.00
72604;DHT22;60645;56.968;24.196;2022-09-20T01:31:48;17.80;72.90
72604;DHT22;60645;56.968;24.196;2022-09-20T01:34:22;17.90;73.10
72604;DHT22;60645;56.968;24.196;2022-09-20T01:37:13;17.80;73.10
72604;DHT22;60645;56.968;24.196;2022-09-20T01:43:01;17.80;73.10
72604;DHT22;60645;56.968;24.196;2022-09-20T01:45:31;17.80;73.00
72604;DHT22;60645;56.968;24.196;2022-09-20T02:10:59;17.60;73.50
72604;DHT22;60645;56.968;24.196;2022-09-20T02:13:30;17.60;73.30
72604;DHT22;60645;56.968;24.196;2022-09-20T02:24:14;17.60;73.40
72604;DHT22;60645;56.968;24.196;2022-09-20T02:46:57;17.50;73.60
72604;DHT22;60645;56.968;24.196;2022-09-20T02:53:13;17.50;73.60
72604;DHT22;60645;56.968;24.196;2022-09-20T03:00:22;17.50;73.60
72604;DHT22;60645;56.968;24.196;2022-09-20T03:05:48;17.40;74.00
72604;DHT22;60645;56.968;24.196;2022-09-20T03:08:36;17.50;73.80
72604;DHT22;60645;56.968;24.196;2022-09-20T03:11:29;17.50;73.70
72604;DHT22;60645;56.968;24.196;2022-09-20T03:14:17;17.50;73.80
72604;DHT22;60645;56.968;24.196;2022-09-20T03:36:58;17.50;73.50
72604;DHT22;60645;56.968;24.196;2022-09-20T03:42:37;17.50;73.30
72604;DHT22;60645;56.968;24.196;2022-09-20T03:48:27;17.50;73.40
72604;DHT22;60645;56.968;24.196;2022-09-20T03:54:08;17.50;73.40
72604;DHT22;60645;56.968;24.196;2022-09-20T04:02:37;17.50;73.50
72604;DHT22;60645;56.968;24.196;2022-09-20T04:05:13;17.50;73.30
72604;DHT22;60645;56.968;24.196;2022-09-20T04:13:11;17.60;73.30
72604;DHT22;60645;56.968;24.196;2022-09-20T04:18:49;17.50;72.80
72604;DHT22;60645;56.968;24.196;2022-09-20T04:27:04;16.00;75.60
72604;DHT22;60645;56.968;24.196;2022-09-20T04:32:49;15.10;79.00
72604;DHT22;60645;56.968;24.196;2022-09-20T04:38:25;14.80;81.80
72604;DHT22;60645;56.968;24.196;2022-09-20T05:00:30;17.10;76.80
72604;DHT22;60645;56.968;24.196;2022-09-20T05:04:11;17.30;76.40
72604;DHT22;60645;56.968;24.196;2022-09-20T05:11:51;18.00;74.30
72604;DHT22;60645;56.968;24.196;2022-09-20T05:17:43;18.50;71.90
72604;DHT22;60645;56.968;24.196;2022-09-20T05:20:51;18.80;71.00
72604;DHT22;60645;56.968;24.196;2022-09-20T05:23:45;18.90;70.40
72604;DHT22;60645;56.968;24.196;2022-09-20T05:26:40;19.00;70.00
72604;DHT22;60645;56.968;24.196;2022-09-20T05:35:00;18.80;70.20
72604;DHT22;60645;56.968;24.196;2022-09-20T05:43:44;18.70;70.30
72604;DHT22;60645;56.968;24.196;2022-09-20T05:46:16;18.60;70.20
72604;DHT22;60645;56.968;24.196;2022-09-20T05:59:40;18.90;70.30
72604;DHT22;60645;56.968;24.196;2022-09-20T06:04:51;19.00;69.80
72604;DHT22;60645;56.968;24.196;2022-09-20T06:10:32;19.00;70.10
72604;DHT22;60645;56.968;24.196;2022-09-20T06:13:28;19.00;70.10
72604;DHT22;60645;56.968;24.196;2022-09-20T06:16:01;19.00;70.40
72604;DHT22;60645;56.968;24.196;2022-09-20T06:18:58;18.90;70.20
72604;DHT22;60645;56.968;24.196;2022-09-20T06:21:39;18.90;70.30
72604;DHT22;60645;56.968;24.196;2022-09-20T06:24:47;18.90;70.30
72604;DHT22;60645;56.968;24.196;2022-09-20T06:28:05;18.90;70.20
72604;DHT22;60645;56.968;24.196;2022-09-20T06:30:07;18.90;70.00
72604;DHT22;60645;56.968;24.196;2022-09-20T06:33:12;18.80;70.00
72604;DHT22;60645;56.968;24.196;2022-09-20T06:41:44;18.90;69.90
72604;DHT22;60645;56.968;24.196;2022-09-20T06:44:10;18.90;69.90
72604;DHT22;60645;56.968;24.196;2022-09-20T06:46:37;18.90;69.70
72604;DHT22;60645;56.968;24.196;2022-09-20T06:49:05;18.80;69.70
72604;DHT22;60645;56.968;24.196;2022-09-20T06:51:36;18.80;69.70
72604;DHT22;60645;56.968;24.196;2022-09-20T06:54:05;18.80;69.60
72604;DHT22;60645;56.968;24.196;2022-09-20T06:56:33;18.80;69.40
72604;DHT22;60645;56.968;24.196;2022-09-20T06:59:03;18.90;69.50
72604;DHT22;60645;56.968;24.196;2022-09-20T07:01:30;18.80;69.40
72604;DHT22;60645;56.968;24.196;2022-09-20T07:03:57;18.80;69.20
72604;DHT22;60645;56.968;24.196;2022-09-20T07:06:24;18.90;69.20
72604;DHT22;60645;56.968;24.196;2022-09-20T07:08:52;19.00;69.00
72604;DHT22;60645;56.968;24.196;2022-09-20T07:11:19;19.10;68.90
72604;DHT22;60645;56.968;24.196;2022-09-20T07:13:53;19.00;68.80
72604;DHT22;60645;56.968;24.196;2022-09-20T07:16:20;19.10;68.70
72604;DHT22;60645;56.968;24.196;2022-09-20T07:18:48;19.10;68.60
72604;DHT22;60645;56.968;24.196;2022-09-20T07:21:17;19.10;68.40
72604;DHT22;60645;56.968;24.196;2022-09-20T07:23:44;19.10;68.30
72604;DHT22;60645;56.968;24.196;2022-09-20T07:26:23;19.10;68.30
72604;DHT22;60645;56.968;24.196;2022-09-20T07:28:51;19.20;68.10
72604;DHT22;60645;56.968;24.196;2022-09-20T07:31:19;19.30;68.00
72604;DHT22;60645;56.968;24.196;2022-09-20T07:33:47;19.30;67.70
72604;DHT22;60645;56.968;24.196;2022-09-20T07:36:15;19.50;67.30
72604;DHT22;60645;56.968;24.196;2022-09-20T07:38:46;19.80;66.70
72604;DHT22;60645;56.968;24.196;2022-09-20T07:41:13;20.00;65.70
72604;DHT22;60645;56.968;24.196;2022-09-20T07:43:40;20.30;64.80
72604;DHT22;60645;56.968;24.196;2022-09-20T07:46:08;20.60;63.90
72604;DHT22;60645;56.968;24.196;2022-09-20T07:48:35;20.80;63.40
72604;DHT22;60645;56.968;24.196;2022-09-20T07:51:12;21.10;62.10
72604;DHT22;60645;56.968;24.196;2022-09-20T07:53:39;21.50;61.20
72604;DHT22;60645;56.968;24.196;2022-09-20T07:56:09;21.80;60.20
72604;DHT22;60645;56.968;24.196;2022-09-20T07:58:36;22.20;59.30
72604;DHT22;60645;56.968;24.196;2022-09-20T08:01:05;23.00;57.60
72604;DHT22;60645;56.968;24.196;2022-09-20T08:03:33;24.50;54.10
72604;DHT22;60645;56.968;24.196;2022-09-20T08:06:08;26.10;50.20
72604;DHT22;60645;56.968;24.196;2022-09-20T08:08:36;27.40;47.90
72604;DHT22;60645;56.968;24.196;2022-09-20T08:11:06;28.20;46.20
72604;DHT22;60645;56.968;24.196;2022-09-20T08:13:41;28.70;45.30
72604;DHT22;60645;56.968;24.196;2022-09-20T08:16:29;28.90;45.00
72604;DHT22;60645;56.968;24.196;2022-09-20T08:18:59;29.50;44.10
72604;DHT22;60645;56.968;24.196;2022-09-20T08:21:33;30.10;43.10
72604;DHT22;60645;56.968;24.196;2022-09-20T08:24:01;30.80;42.30
72604;DHT22;60645;56.968;24.196;2022-09-20T08:26:29;31.10;41.80
72604;DHT22;60645;56.968;24.196;2022-09-20T08:29:01;31.40;41.30
72604;DHT22;60645;56.968;24.196;2022-09-20T08:31:29;31.70;40.90
72604;DHT22;60645;56.968;24.196;2022-09-20T08:33:57;31.80;40.60
72604;DHT22;60645;56.968;24.196;2022-09-20T08:36:29;32.00;40.50
72604;DHT22;60645;56.968;24.196;2022-09-20T08:39:03;32.20;40.30
72604;DHT22;60645;56.968;24.196;2022-09-20T08:42:08;32.20;40.20
72604;DHT22;60645;56.968;24.196;2022-09-20T08:44:53;32.20;40.10
72604;DHT22;60645;56.968;24.196;2022-09-20T08:49:53;32.10;40.10
72604;DHT22;60645;56.968;24.196;2022-09-20T08:52:34;30.90;41.30
72604;DHT22;60645;56.968;24.196;2022-09-20T08:55:24;29.60;42.80
72604;DHT22;60645;56.968;24.196;2022-09-20T08:57:55;30.00;42.40
72604;DHT22;60645;56.968;24.196;2022-09-20T09:00:27;29.90;42.50
72604;DHT22;60645;56.968;24.196;2022-09-20T09:02:59;29.40;42.90
72604;DHT22;60645;56.968;24.196;2022-09-20T09:05:37;28.60;43.80
72604;DHT22;60645;56.968;24.196;2022-09-20T09:08:23;28.00;45.00
72604;DHT22;60645;56.968;24.196;2022-09-20T09:10:54;27.70;45.40
72604;DHT22;60645;56.968;24.196;2022-09-20T09:15:58;27.20;46.00
72604;DHT22;60645;56.968;24.196;2022-09-20T09:18:32;26.90;46.60
72604;DHT22;60645;56.968;24.196;2022-09-20T09:21:02;26.80;47.00
72604;DHT22;60645;56.968;24.196;2022-09-20T09:23:40;27.20;46.40
72604;DHT22;60645;56.968;24.196;2022-09-20T09:26:19;27.80;45.20
72604;DHT22;60645;56.968;24.196;2022-09-20T09:29:27;27.40;45.70
72604;DHT22;60645;56.968;24.196;2022-09-20T09:34:46;25.90;48.20
72604;DHT22;60645;56.968;24.196;2022-09-20T09:37:28;25.40;49.30
72604;DHT22;60645;56.968;24.196;2022-09-20T09:40:15;24.90;50.10
72604;DHT22;60645;56.968;24.196;2022-09-20T09:42:54;24.60;50.50
72604;DHT22;60645;56.968;24.196;2022-09-20T09:45:31;24.40;51.00
72604;DHT22;60645;56.968;24.196;2022-09-20T09:48:02;24.20;51.50
72604;DHT22;60645;56.968;24.196;2022-09-20T09:50:42;24.00;51.70
72604;DHT22;60645;56.968;24.196;2022-09-20T09:53:13;24.00;52.00
72604;DHT22;60645;56.968;24.196;2022-09-20T10:01:39;25.30;48.90
72604;DHT22;60645;56.968;24.196;2022-09-20T10:15:05;24.00;51.80
72604;DHT22;60645;56.968;24.196;2022-09-20T10:23:33;25.90;48.50
72604;DHT22;60645;56.968;24.196;2022-09-20T10:51:58;25.50;48.60
72604;DHT22;60645;56.968;24.196;2022-09-20T10:57:23;25.30;48.90
72604;DHT22;60645;56.968;24.196;2022-09-20T11:03:02;24.50;50.30
72604;DHT22;60645;56.968;24.196;2022-09-20T11:08:25;24.20;50.80
72604;DHT22;60645;56.968;24.196;2022-09-20T11:10:49;24.20;50.90
72604;DHT22;60645;56.968;24.196;2022-09-20T11:13:28;24.40;50.60
72604;DHT22;60645;56.968;24.196;2022-09-20T11:16:02;24.60;50.00
72604;DHT22;60645;56.968;24.196;2022-09-20T11:19:02;24.90;49.60
72604;DHT22;60645;56.968;24.196;2022-09-20T11:21:37;25.40;48.70
72604;DHT22;60645;56.968;24.196;2022-09-20T11:26:46;25.90;48.00
72604;DHT22;60645;56.968;24.196;2022-09-20T11:31:47;25.90;47.60
72604;DHT22;60645;56.968;24.196;2022-09-20T11:34:35;25.90;47.60
72604;DHT22;60645;56.968;24.196;2022-09-20T11:37:03;25.90;47.50
72604;DHT22;60645;56.968;24.196;2022-09-20T11:42:14;25.80;47.60
72604;DHT22;60645;56.968;24.196;2022-09-20T11:44:42;25.80;47.60
72604;DHT22;60645;56.968;24.196;2022-09-20T11:47:21;25.70;47.90
72604;DHT22;60645;56.968;24.196;2022-09-20T11:53:34;25.80;47.80
72604;DHT22;60645;56.968;24.196;2022-09-20T11:56:20;25.70;47.70
72604;DHT22;60645;56.968;24.196;2022-09-20T11:58:53;25.60;48.00
72604;DHT22;60645;56.968;24.196;2022-09-20T12:01:35;25.50;48.10
72604;DHT22;60645;56.968;24.196;2022-09-20T12:07:05;25.40;48.50
72604;DHT22;60645;56.968;24.196;2022-09-20T12:09:41;25.20;48.70
72604;DHT22;60645;56.968;24.196;2022-09-20T12:14:59;24.70;49.40
72604;DHT22;60645;56.968;24.196;2022-09-20T12:28:41;24.20;50.50
72604;DHT22;60645;56.968;24.196;2022-09-20T12:41:56;23.70;51.40
72604;DHT22;60645;56.968;24.196;2022-09-20T12:47:22;23.70;51.60
72604;DHT22;60645;56.968;24.196;2022-09-20T12:49:51;23.50;51.70
72604;DHT22;60645;56.968;24.196;2022-09-20T13:03:46;23.10;52.80
72604;DHT22;60645;56.968;24.196;2022-09-20T13:08:43;22.90;53.20
72604;DHT22;60645;56.968;24.196;2022-09-20T13:11:37;22.80;53.30
72604;DHT22;60645;56.968;24.196;2022-09-20T13:22:00;22.50;53.90
72604;DHT22;60645;56.968;24.196;2022-09-20T13:24:39;22.50;53.90
72604;DHT22;60645;56.968;24.196;2022-09-20T13:27:13;22.50;54.30
72604;DHT22;60645;56.968;24.196;2022-09-20T13:29:45;22.50;54.20
72604;DHT22;60645;56.968;24.196;2022-09-20T13:32:29;22.50;54.20
72604;DHT22;60645;56.968;24.196;2022-09-20T13:37:44;22.30;54.40
72604;DHT22;60645;56.968;24.196;2022-09-20T13:40:21;22.20;54.60
72604;DHT22;60645;56.968;24.196;2022-09-20T13:42:50;22.30;54.70
72604;DHT22;60645;56.968;24.196;2022-09-20T13:45:19;22.10;54.90
72604;DHT22;60645;56.968;24.196;2022-09-20T13:47:50;22.10;54.90
72604;DHT22;60645;56.968;24.196;2022-09-20T13:52:58;21.90;55.30
72604;DHT22;60645;56.968;24.196;2022-09-20T13:55:33;21.90;55.60
72604;DHT22;60645;56.968;24.196;2022-09-20T13:58:08;21.80;55.70
72604;DHT22;60645;56.968;24.196;2022-09-20T14:00:36;21.80;55.70
72604;DHT22;60645;56.968;24.196;2022-09-20T14:03:16;21.80;55.70
72604;DHT22;60645;56.968;24.196;2022-09-20T14:05:48;21.80;55.70
72604;DHT22;60645;56.968;24.196;2022-09-20T14:08:36;21.80;55.90
72604;DHT22;60645;56.968;24.196;2022-09-20T14:11:25;21.60;56.20
72604;DHT22;60645;56.968;24.196;2022-09-20T14:13:57;21.50;56.40
72604;DHT22;60645;56.968;24.196;2022-09-20T14:16:34;21.50;56.60
72604;DHT22;60645;56.968;24.196;2022-09-20T14:19:04;21.50;56.70
72604;DHT22;60645;56.968;24.196;2022-09-20T14:21:34;21.40;57.10
72604;DHT22;60645;56.968;24.196;2022-09-20T14:26:38;21.30;57.50
72604;DHT22;60645;56.968;24.196;2022-09-20T14:37:45;20.50;55.80
72604;DHT22;60645;56.968;24.196;2022-09-20T14:40:18;20.00;56.70
72604;DHT22;60645;56.968;24.196;2022-09-20T14:42:48;19.60;57.60
72604;DHT22;60645;56.968;24.196;2022-09-20T14:45:22;19.20;59.10
72604;DHT22;60645;56.968;24.196;2022-09-20T14:48:37;18.90;60.20
72604;DHT22;60645;56.968;24.196;2022-09-20T14:50:45;18.70;61.00
72604;DHT22;60645;56.968;24.196;2022-09-20T14:53:24;18.60;61.80
72604;DHT22;60645;56.968;24.196;2022-09-20T14:58:32;18.20;62.30
72604;DHT22;60645;56.968;24.196;2022-09-20T15:01:18;18.10;63.20
72604;DHT22;60645;56.968;24.196;2022-09-20T15:03:48;18.00;64.00
72604;DHT22;60645;56.968;24.196;2022-09-20T15:06:15;17.70;64.50
72604;DHT22;60645;56.968;24.196;2022-09-20T15:08:42;17.60;65.00
72604;DHT22;60645;56.968;24.196;2022-09-20T15:11:18;17.50;66.10
72604;DHT22;60645;56.968;24.196;2022-09-20T15:13:46;17.40;66.40
72604;DHT22;60645;56.968;24.196;2022-09-20T15:16:14;17.30;66.30
72604;DHT22;60645;56.968;24.196;2022-09-20T15:18:43;17.20;66.80
72604;DHT22;60645;56.968;24.196;2022-09-20T15:21:11;17.10;67.30
72604;DHT22;60645;56.968;24.196;2022-09-20T15:23:38;17.00;67.40
72604;DHT22;60645;56.968;24.196;2022-09-20T15:26:06;16.90;67.80
72604;DHT22;60645;56.968;24.196;2022-09-20T15:28:34;16.90;68.30
72604;DHT22;60645;56.968;24.196;2022-09-20T15:31:01;16.80;68.30
72604;DHT22;60645;56.968;24.196;2022-09-20T15:33:30;16.70;68.30
72604;DHT22;60645;56.968;24.196;2022-09-20T15:35:58;16.70;68.40
72604;DHT22;60645;56.968;24.196;2022-09-20T15:38:25;16.60;68.80
72604;DHT22;60645;56.968;24.196;2022-09-20T15:40:53;16.50;68.70
72604;DHT22;60645;56.968;24.196;2022-09-20T15:43:22;16.40;68.30
72604;DHT22;60645;56.968;24.196;2022-09-20T15:45:58;16.40;68.40
72604;DHT22;60645;56.968;24.196;2022-09-20T15:48:29;16.40;69.00
72604;DHT22;60645;56.968;24.196;2022-09-20T15:53:26;16.30;69.20
72604;DHT22;60645;56.968;24.196;2022-09-20T15:55:53;16.20;69.20
72604;DHT22;60645;56.968;24.196;2022-09-20T15:58:20;16.10;69.80
72604;DHT22;60645;56.968;24.196;2022-09-20T16:00:47;16.10;70.10
72604;DHT22;60645;56.968;24.196;2022-09-20T16:03:15;16.00;70.30
72604;DHT22;60645;56.968;24.196;2022-09-20T16:05:43;16.00;70.50
72604;DHT22;60645;56.968;24.196;2022-09-20T16:08:09;16.00;70.60
72604;DHT22;60645;56.968;24.196;2022-09-20T16:10:36;15.90;70.80
72604;DHT22;60645;56.968;24.196;2022-09-20T16:13:04;15.80;71.70
72604;DHT22;60645;56.968;24.196;2022-09-20T16:15:30;15.70;71.60
72604;DHT22;60645;56.968;24.196;2022-09-20T16:17:57;15.70;71.70
72604;DHT22;60645;56.968;24.196;2022-09-20T16:20:43;15.50;72.10
72604;DHT22;60645;56.968;24.196;2022-09-20T16:23:09;15.50;72.00
72604;DHT22;60645;56.968;24.196;2022-09-20T16:25:38;15.40;72.00
72604;DHT22;60645;56.968;24.196;2022-09-20T16:28:05;15.40;72.20
72604;DHT22;60645;56.968;24.196;2022-09-20T16:30:32;15.30;72.80
72604;DHT22;60645;56.968;24.196;2022-09-20T16:32:59;15.30;72.80
72604;DHT22;60645;56.968;24.196;2022-09-20T16:35:31;15.20;73.30
72604;DHT22;60645;56.968;24.196;2022-09-20T16:37:59;15.10;73.40
72604;DHT22;60645;56.968;24.196;2022-09-20T16:40:26;15.10;73.50
72604;DHT22;60645;56.968;24.196;2022-09-20T16:42:53;15.10;74.40
72604;DHT22;60645;56.968;24.196;2022-09-20T16:45:22;15.10;74.20
72604;DHT22;60645;56.968;24.196;2022-09-20T16:47:49;15.00;74.40
72604;DHT22;60645;56.968;24.196;2022-09-20T16:50:16;15.00;75.00
72604;DHT22;60645;56.968;24.196;2022-09-20T16:52:43;14.90;75.40
72604;DHT22;60645;56.968;24.196;2022-09-20T16:55:10;14.70;75.30
72604;DHT22;60645;56.968;24.196;2022-09-20T16:57:38;14.90;75.30
72604;DHT22;60645;56.968;24.196;2022-09-20T17:00:06;14.70;75.20
72604;DHT22;60645;56.968;24.196;2022-09-20T17:02:32;14.80;75.40
72604;DHT22;60645;56.968;24.196;2022-09-20T17:05:01;14.70;75.50
72604;DHT22;60645;56.968;24.196;2022-09-20T17:07:28;14.70;75.90
72604;DHT22;60645;56.968;24.196;2022-09-20T17:09:56;14.60;76.30
72604;DHT22;60645;56.968;24.196;2022-09-20T17:12:27;14.60;76.50
72604;DHT22;60645;56.968;24.196;2022-09-20T17:14:58;14.60;76.60
72604;DHT22;60645;56.968;24.196;2022-09-20T17:17:25;14.60;76.50
72604;DHT22;60645;56.968;24.196;2022-09-20T17:19:52;14.60;76.80
72604;DHT22;60645;56.968;24.196;2022-09-20T17:22:20;14.50;76.70
72604;DHT22;60645;56.968;24.196;2022-09-20T17:24:47;14.50;76.90
72604;DHT22;60645;56.968;24.196;2022-09-20T17:27:15;14.50;77.00
72604;DHT22;60645;56.968;24.196;2022-09-20T17:29:42;14.40;76.90
72604;DHT22;60645;56.968;24.196;2022-09-20T17:32:09;14.50;77.10
72604;DHT22;60645;56.968;24.196;2022-09-20T17:34:36;14.40;77.30
72604;DHT22;60645;56.968;24.196;2022-09-20T17:37:03;14.40;77.50
72604;DHT22;60645;56.968;24.196;2022-09-20T17:39:30;14.40;77.60
72604;DHT22;60645;56.968;24.196;2022-09-20T17:41:57;14.30;77.90
72604;DHT22;60645;56.968;24.196;2022-09-20T17:44:24;14.30;78.00
72604;DHT22;60645;56.968;24.196;2022-09-20T17:46:50;14.30;78.30
72604;DHT22;60645;56.968;24.196;2022-09-20T17:49:21;14.20;78.20
72604;DHT22;60645;56.968;24.196;2022-09-20T17:51:50;14.20;78.40
72604;DHT22;60645;56.968;24.196;2022-09-20T17:54:18;14.10;78.50
72604;DHT22;60645;56.968;24.196;2022-09-20T17:56:47;14.10;78.40
72604;DHT22;60645;56.968;24.196;2022-09-20T17:59:16;14.10;78.50
72604;DHT22;60645;56.968;24.196;2022-09-20T18:01:44;14.10;78.90
72604;DHT22;60645;56.968;24.196;2022-09-20T18:04:12;14.10;79.20
72604;DHT22;60645;56.968;24.196;2022-09-20T18:06:40;14.00;79.30
72604;DHT22;60645;56.968;24.196;2022-09-20T18:09:10;14.10;79.10
72604;DHT22;60645;56.968;24.196;2022-09-20T18:11:48;14.10;78.90
72604;DHT22;60645;56.968;24.196;2022-09-20T18:14:17;14.10;78.90
72604;DHT22;60645;56.968;24.196;2022-09-20T18:16:45;14.20;78.60
72604;DHT22;60645;56.968;24.196;2022-09-20T18:19:13;14.20;78.40
72604;DHT22;60645;56.968;24.196;2022-09-20T18:21:42;14.20;78.30
72604;DHT22;60645;56.968;24.196;2022-09-20T18:24:10;14.20;78.10
72604;DHT22;60645;56.968;24.196;2022-09-20T18:26:37;14.20;78.10
72604;DHT22;60645;56.968;24.196;2022-09-20T18:29:08;14.20;78.30
72604;DHT22;60645;56.968;24.196;2022-09-20T18:31:41;14.10;78.20
72604;DHT22;60645;56.968;24.196;2022-09-20T18:34:20;14.20;78.20
72604;DHT22;60645;56.968;24.196;2022-09-20T18:36:57;14.20;78.20
72604;DHT22;60645;56.968;24.196;2022-09-20T18:39:27;14.20;78.00
72604;DHT22;60645;56.968;24.196;2022-09-20T18:41:55;14.20;77.90
72604;DHT22;60645;56.968;24.196;2022-09-20T18:44:22;14.20;78.30
72604;DHT22;60645;56.968;24.196;2022-09-20T18:46:49;14.20;78.50
72604;DHT22;60645;56.968;24.196;2022-09-20T18:49:20;14.10;78.30
72604;DHT22;60645;56.968;24.196;2022-09-20T18:51:47;14.00;78.70
72604;DHT22;60645;56.968;24.196;2022-09-20T18:54:15;14.00;78.80
72604;DHT22;60645;56.968;24.196;2022-09-20T18:56:44;13.90;78.80
72604;DHT22;60645;56.968;24.196;2022-09-20T19:07:31;13.80;79.10
72604;DHT22;60645;56.968;24.196;2022-09-20T19:15:40;13.60;79.00
72604;DHT22;60645;56.968;24.196;2022-09-20T19:21:19;13.60;79.20
72604;DHT22;60645;56.968;24.196;2022-09-20T19:26:44;13.60;79.50
72604;DHT22;60645;56.968;24.196;2022-09-20T19:29:22;13.50;79.70
72604;DHT22;60645;56.968;24.196;2022-09-20T19:31:53;13.40;79.90
72604;DHT22;60645;56.968;24.196;2022-09-20T19:34:26;13.40;80.00
72604;DHT22;60645;56.968;24.196;2022-09-20T19:45:43;13.30;80.10
72604;DHT22;60645;56.968;24.196;2022-09-20T19:48:18;13.30;80.20
72604;DHT22;60645;56.968;24.196;2022-09-20T19:50:49;13.20;80.10
72604;DHT22;60645;56.968;24.196;2022-09-20T19:53:19;13.20;80.30
72604;DHT22;60645;56.968;24.196;2022-09-20T19:58:38;13.10;81.00
72604;DHT22;60645;56.968;24.196;2022-09-20T20:01:10;13.00;80.50
72604;DHT22;60645;56.968;24.196;2022-09-20T20:03:38;13.00;80.50
72604;DHT22;60645;56.968;24.196;2022-09-20T20:06:17;12.80;80.40
72604;DHT22;60645;56.968;24.196;2022-09-20T20:09:00;13.10;82.40
72604;DHT22;60645;56.968;24.196;2022-09-20T20:24:50;15.10;79.90
72604;DHT22;60645;56.968;24.196;2022-09-20T20:27:20;15.40;79.70
72604;DHT22;60645;56.968;24.196;2022-09-20T20:29:48;15.70;79.00
72604;DHT22;60645;56.968;24.196;2022-09-20T20:32:16;15.90;78.70
72604;DHT22;60645;56.968;24.196;2022-09-20T20:34:42;16.00;77.90
72604;DHT22;60645;56.968;24.196;2022-09-20T20:37:09;16.20;78.20
72604;DHT22;60645;56.968;24.196;2022-09-20T20:39:36;16.30;77.20
72604;DHT22;60645;56.968;24.196;2022-09-20T20:42:04;16.40;77.80
72604;DHT22;60645;56.968;24.196;2022-09-20T20:44:33;16.50;77.50
72604;DHT22;60645;56.968;24.196;2022-09-20T20:47:04;16.60;77.10
72604;DHT22;60645;56.968;24.196;2022-09-20T20:49:35;16.60;77.00
72604;DHT22;60645;56.968;24.196;2022-09-20T20:52:02;16.60;76.80
72604;DHT22;60645;56.968;24.196;2022-09-20T20:54:31;16.70;76.60
72604;DHT22;60645;56.968;24.196;2022-09-20T20:56:58;16.70;76.80
72604;DHT22;60645;56.968;24.196;2022-09-20T20:59:25;16.80;76.50
72604;DHT22;60645;56.968;24.196;2022-09-20T21:01:52;16.70;76.90
72604;DHT22;60645;56.968;24.196;2022-09-20T21:04:19;16.80;76.30
72604;DHT22;60645;56.968;24.196;2022-09-20T21:06:47;16.80;76.40
72604;DHT22;60645;56.968;24.196;2022-09-20T21:09:16;16.90;76.40
72604;DHT22;60645;56.968;24.196;2022-09-20T21:11:42;16.80;76.40
72604;DHT22;60645;56.968;24.196;2022-09-20T21:14:11;16.90;76.60
72604;DHT22;60645;56.968;24.196;2022-09-20T21:16:40;16.90;76.00
72604;DHT22;60645;56.968;24.196;2022-09-20T21:19:10;16.90;76.30
72604;DHT22;60645;56.968;24.196;2022-09-20T21:21:42;16.90;75.90
72604;DHT22;60645;56.968;24.196;2022-09-20T21:24:11;17.00;75.70
72604;DHT22;60645;56.968;24.196;2022-09-20T21:26:39;16.90;75.80
72604;DHT22;60645;56.968;24.196;2022-09-20T21:29:10;17.00;75.70
72604;DHT22;60645;56.968;24.196;2022-09-20T21:31:39;17.00;75.90
72604;DHT22;60645;56.968;24.196;2022-09-20T21:34:08;17.00;76.10
72604;DHT22;60645;56.968;24.196;2022-09-20T21:36:37;17.00;76.20
72604;DHT22;60645;56.968;24.196;2022-09-20T21:39:04;17.10;76.20
72604;DHT22;60645;56.968;24.196;2022-09-20T21:41:34;17.10;76.10
72604;DHT22;60645;56.968;24.196;2022-09-20T21:44:02;17.10;76.20
72604;DHT22;60645;56.968;24.196;2022-09-20T21:46:37;17.10;76.30
72604;DHT22;60645;56.968;24.196;2022-09-20T21:49:07;17.00;76.10
72604;DHT22;60645;56.968;24.196;2022-09-20T21:51:35;17.10;76.30
72604;DHT22;60645;56.968;24.196;2022-09-20T21:54:02;17.10;76.20
72604;DHT22;60645;56.968;24.196;2022-09-20T21:56:34;17.20;76.10
72604;DHT22;60645;56.968;24.196;2022-09-20T21:59:01;17.20;75.90
72604;DHT22;60645;56.968;24.196;2022-09-20T22:01:32;17.20;76.20
72604;DHT22;60645;56.968;24.196;2022-09-20T22:04:04;17.10;76.40
72604;DHT22;60645;56.968;24.196;2022-09-20T22:06:36;17.10;76.40
72604;DHT22;60645;56.968;24.196;2022-09-20T22:09:06;17.20;76.60